Time;durP1;ratioP1;P1;durP2;ratioP2;P2;SDS_P1;SDS_P2;PMS_P1;PMS_P2;Temp;Humidity;BMP_temperature;BMP_pressure;BME280_temperature;BME280_humidity;BME280_pressure;Samples;Min_cycle;Max_cycle;Signal;HPM_P1;HPM_P2
2022/12/21 00:00:00;;;;;;;;;;;;;;;;;;353661;28;932;-74
2022/12/21 00:00:10;;;;;;;;;;;;;;;;;;353435;28;1342;-74
2022/12/21 00:00:20;;;;;;;;;;;;;;;;;;354171;27;1463;-74
2022/12/21 00:00:30;;;;;;;;;;;;;;;;;;353421;28;1188;-73
2022/12/21 00:00:41;;;;;;;;;;;;;;;;;;352131;28;1306;-73
2022/12/21 00:00:51;;;;;;;;;;;;;;;;;;351585;28;1442;-73
2022/12/21 00:01:01;;;;;;;;;;;;;;;;;;349560;28;1885;-73
2022/12/21 00:01:11;;;;;;;;;;;;;;;;;;350758;28;1058;-73
2022/12/21 00:01:21;;;;;;;;;;;;;;;;;;349485;28;855;-73
2022/12/21 00:01:31;;;;;;;;;;;;;;;;;;349656;28;812;-73
2022/12/21 00:01:41;;;;;;;;;;;;;;;;;;350716;28;883;-73
2022/12/21 00:01:51;;;;;;;;;;;;;;;;;;350772;28;887;-73
2022/12/21 00:02:01;;;;;;;;;;;;;;;;;;350464;28;1505;-73
2022/12/21 00:02:12;;;;;;;;;;;;;;;;;;350716;28;1306;-73
2022/12/21 00:02:22;;;;;;;;;;;;;;;;;;352185;28;824;-73
2022/12/21 00:02:32;;;;;;;;;;;;;;;;;;351305;28;1245;-73
2022/12/21 00:02:42;;;;;;;;;;;;;;;;;;353424;28;918;-73
2022/12/21 00:02:52;;;;;;;;;;;;;;;;;;353630;28;863;-73
2022/12/21 00:03:02;;;;;;;;;;;;;;;;;;353442;28;943;-73
2022/12/21 00:03:12;;;;;;;;;;;;;;;;;;351829;28;1361;-73
2022/12/21 00:03:22;;;;;;;;;;;;;;;;;;346793;28;4560;-73
2022/12/21 00:03:33;;;;;;;;;;;;;;;;;;347563;28;3709;-74
2022/12/21 00:03:43;;;;;;;;;;;;;;;;;;347860;28;1229;-74
2022/12/21 00:03:53;;;;;;;;;;;;;;;;;;346328;28;1751;-74
2022/12/21 00:04:03;;;;;;;;;;;;;;;;;;346413;28;3841;-73
2022/12/21 00:04:13;;;;;;;;;;;;;;;;;;346573;28;960;-73
2022/12/21 00:04:23;;;;;;;;;;;;;;;;;;346581;28;1183;-73
2022/12/21 00:04:33;;;;;;;;;;;;;;;;;;346535;28;916;-73
2022/12/21 00:04:43;;;;;;;;;;;;;;;;;;346681;28;855;-74
2022/12/21 00:04:53;;;;;;;;;;;;;;;;;;346480;28;1267;-74
2022/12/21 00:05:04;;;;;;;;;;;;;;;;;;345483;28;1259;-74
2022/12/21 00:05:14;;;;;;;;;;;;;;;;;;346226;28;2133;-75
2022/12/21 00:05:24;;;;;;;;;;;;;;;;;;346638;28;963;-75
2022/12/21 00:05:34;;;;;;;;;;;;;;;;;;346445;28;1070;-75
2022/12/21 00:05:44;;;;;;;;;;;;;;;;;;346440;28;1365;-75
2022/12/21 00:05:54;;;;;;;;;;;;;;;;;;346659;28;793;-75
2022/12/21 00:06:04;;;;;;;;;;;;;;;;;;345666;28;1994;-75
2022/12/21 00:06:14;;;;;;;;;;;;;;;;;;345362;28;1165;-75
2022/12/21 00:06:24;;;;;;;;;;;;;;;;;;346639;28;977;-75
2022/12/21 00:06:35;;;;;;;;;;;;;;;;;;347672;28;1278;-75
2022/12/21 00:06:45;;;;;;;;;;;;;;;;;;347701;28;1527;-75
2022/12/21 00:06:56;;;;;;;;;;;;;;;;;;347603;28;1622;-74
2022/12/21 00:07:06;;;;;;;;;;;;;;;;;;345083;28;1222;-74
2022/12/21 00:07:16;;;;;;;;;;;;;;;;;;346078;28;1340;-75
2022/12/21 00:07:26;;;;;;;;;;;;;;;;;;347996;28;884;-75
2022/12/21 00:07:36;;;;;;;;;;;;;;;;;;347331;28;1359;-75
2022/12/21 00:07:47;;;;;;;;;;;;;;;;;;345772;28;1650;-75
2022/12/21 00:07:59;;;;;;;;;;;;;;;;;;343668;28;1973;-75
2022/12/21 00:08:09;;;;;;;;;;;;;;;;;;343425;28;880;-75
2022/12/21 00:08:19;;;;;;;;;;;;;;;;;;343655;28;1295;-75
2022/12/21 00:08:30;;;;;;;;;;;;;;;;;;344556;28;1672;-75
2022/12/21 00:08:41;;;;;;;;;;;;;;;;;;345212;28;1209;-75
2022/12/21 00:08:51;;;;;;;;;;;;;;;;;;350197;28;1058;-75
2022/12/21 00:09:01;;;;;;;;;;;;;;;;;;349554;28;1356;-75
2022/12/21 00:09:11;;;;;;;;;;;;;;;;;;350807;28;891;-75
2022/12/21 00:09:21;;;;;;;;;;;;;;;;;;344924;28;1921;-75
2022/12/21 00:09:33;;;;;;;;;;;;;;;;;;346050;28;1796;-74
2022/12/21 00:09:44;;;;;;;;;;;;;;;;;;343462;28;1950;-75
2022/12/21 00:09:54;;;;;;;;;;;;;;;;;;343927;28;857;-75
2022/12/21 00:10:04;;;;;;;;;;;;;;;;;;342461;28;2206;-75
2022/12/21 00:10:14;;;;;;;;;;;;;;;;;;341953;28;1461;-75
2022/12/21 00:10:24;;;;;;;;;;;;;;;;;;341213;29;1069;-75
2022/12/21 00:10:34;;;;;;;;;;;;;;;;;;340743;29;1198;-75
2022/12/21 00:10:44;;;;;;;;;;;;;;;;;;337981;29;1159;-75
2022/12/21 00:10:54;;;;;;;;;;;;;;;;;;337027;29;948;-75
2022/12/21 00:11:04;;;;;;;;;;;;;;;;;;334527;29;1838;-75
2022/12/21 00:11:14;;;;;;;;;;;;;;;;;;334795;29;1960;-75
2022/12/21 00:11:24;;;;;;;;;;;;;;;;;;337367;29;1012;-75
2022/12/21 00:11:35;;;;;;;;;;;;;;;;;;340477;28;2278;-75
2022/12/21 00:11:45;;;;;;;;;;;;;;;;;;339924;29;2476;-74
2022/12/21 00:11:55;;;;;;;;;;;;;;;;;;339954;29;901;-75
2022/12/21 00:12:05;;;;;;;;;;;;;;;;;;337192;29;2499;-75
2022/12/21 00:12:15;;;;;;;;;;;;;;;;;;336539;29;2585;-75
2022/12/21 00:12:25;;;;;;;;;;;;;;;;;;338634;29;942;-75
2022/12/21 00:12:36;;;;;;;;;;;;;;;;;;337050;29;5725;-75
2022/12/21 00:12:46;;;;;;;;;;;;;;;;;;336707;29;3938;-75
2022/12/21 00:12:56;;;;;;;;;;;;;;;;;;336034;29;986;-75
2022/12/21 00:13:06;;;;;;;;;;;;;;;;;;337004;29;2572;-75
2022/12/21 00:13:17;;;;;;;;;;;;;;;;;;336117;29;3957;-75
2022/12/21 00:13:27;;;;;;;;;;;;;;;;;;336635;29;2705;-75
2022/12/21 00:13:37;;;;;;;;;;;;;;;;;;337327;29;996;-75
2022/12/21 00:13:47;;;;;;;;;;;;;;;;;;336125;29;3065;-74
2022/12/21 00:13:57;;;;;;;;;;;;;;;;;;332853;29;3235;-74
2022/12/21 00:14:07;;;;;;;;;;;;;;;;;;333334;29;1174;-74
2022/12/21 00:14:18;;;;;;;;;;;;;;;;;;329953;29;3356;-76
2022/12/21 00:14:28;;;;;;;;;;;;;;;;;;327099;29;3231;-75
2022/12/21 00:14:38;;;;;;;;;;;;;;;;;;331027;29;1048;-75
2022/12/21 00:14:49;;;;;;;;;;;;;;;;;;330485;29;2356;-75
2022/12/21 00:14:59;;;;;;;;;;;;;;;;;;327938;30;1992;-75
2022/12/21 00:15:09;;;;;;;;;;;;;;;;;;327087;30;1041;-75
2022/12/21 00:15:19;;;;;;;;;;;;;;;;;;324231;30;2768;-75
2022/12/21 00:15:29;;;;;;;;;;;;;;;;;;324457;30;3499;-75
2022/12/21 00:15:39;;;;;;;;;;;;;;;;;;324815;30;1296;-75
2022/12/21 00:15:49;;;;;;;;;;;;;;;;;;323168;30;3766;-75
2022/12/21 00:15:59;;;;;;;;;;;;;;;;;;321498;30;4344;-75
2022/12/21 00:16:09;;;;;;;;;;;;;;;;;;323665;30;1132;-75
2022/12/21 00:16:20;;;;;;;;;;;;;;;;;;323038;30;4417;-75
2022/12/21 00:16:30;;;;;;;;;;;;;;;;;;323192;30;4504;-75
2022/12/21 00:16:40;;;;;;;;;;;;;;;;;;323696;30;983;-75
2022/12/21 00:16:50;;;;;;;;;;;;;;;;;;323950;30;4568;-75
2022/12/21 00:17:00;;;;;;;;;;;;;;;;;;322475;30;3204;-75
2022/12/21 00:17:10;;;;;;;;;;;;;;;;;;321389;30;960;-75
2022/12/21 00:17:20;;;;;;;;;;;;;;;;;;320258;30;2921;-75
2022/12/21 00:17:30;;;;;;;;;;;;;;;;;;321275;30;3952;-75
2022/12/21 00:17:40;;;;;;;;;;;;;;;;;;321252;30;1206;-75
2022/12/21 00:17:50;;;;;;;;;;;;;;;;;;319395;30;4974;-75
2022/12/21 00:18:01;;;;;;;;;;;;;;;;;;319908;30;5481;-75
2022/12/21 00:18:11;;;;;;;;;;;;;;;;;;321653;30;1300;-75
2022/12/21 00:18:21;;;;;;;;;;;;;;;;;;320227;30;5975;-75
2022/12/21 00:18:31;;;;;;;;;;;;;;;;;;320500;30;6248;-74
2022/12/21 00:18:41;;;;;;;;;;;;;;;;;;321282;30;841;-74
2022/12/21 00:18:51;;;;;;;;;;;;;;;;;;320270;30;6041;-74
2022/12/21 00:19:02;;;;;;;;;;;;;;;;;;317382;31;6212;-74
2022/12/21 00:19:13;;;;;;;;;;;;;;;;;;316579;31;1346;-75
2022/12/21 00:19:23;;;;;;;;;;;;;;;;;;317762;31;874;-75
2022/12/21 00:19:33;;;;;;;;;;;;;;;;;;315477;31;4511;-75
2022/12/21 00:19:43;;;;;;;;;;;;;;;;;;314328;31;6237;-75
2022/12/21 00:19:53;;;;;;;;;;;;;;;;;;313214;31;1237;-75
2022/12/21 00:20:03;;;;;;;;;;;;;;;;;;312145;31;6769;-75
2022/12/21 00:20:13;;;;;;;;;;;;;;;;;;311814;31;7164;-75
2022/12/21 00:20:24;;;;;;;;;;;;;;;;;;312072;31;1021;-75
2022/12/21 00:20:34;;;;;;;;;;;;;;;;;;312377;31;8128;-75
2022/12/21 00:20:44;;;;;;;;;;;;;;;;;;313084;31;9394;-75
2022/12/21 00:20:54;;;;;;;;;;;;;;;;;;314270;31;1278;-75
2022/12/21 00:21:04;;;;;;;;;;;;;;;;;;311080;31;8076;-75
2022/12/21 00:21:14;;;;;;;;;;;;;;;;;;310090;31;8403;-75
2022/12/21 00:21:24;;;;;;;;;;;;;;;;;;308033;32;1451;-75
2022/12/21 00:21:34;;;;;;;;;;;;;;;;;;304900;32;6461;-75
2022/12/21 00:21:45;;;;;;;;;;;;;;;;;;302842;31;6729;-75
2022/12/21 00:21:55;;;;;;;;;;;;;;;;;;305758;32;2641;-75
2022/12/21 00:22:05;;;;;;;;;;;;;;;;;;302390;32;7853;-75
2022/12/21 00:23:41;;;;;;;;;;;;;;;;;;2499711;27;19933;-74
2022/12/21 00:23:51;;;;;;;;;;;;;;;;;;356382;27;889;-74
2022/12/21 00:24:01;;;;;;;;;;;;;;;;;;356553;27;981;-75
2022/12/21 00:24:11;;;;;;;;;;;;;;;;;;356560;27;1264;-75
2022/12/21 00:24:22;;;;;;;;;;;;;;;;;;354996;27;1419;-76
2022/12/21 00:24:32;;;;;;;;;;;;;;;;;;355025;27;893;-76
2022/12/21 00:24:42;;;;;;;;;;;;;;;;;;354900;27;1354;-74
2022/12/21 00:24:52;;;;;;;;;;;;;;;;;;353423;28;1182;-74
2022/12/21 00:25:02;;;;;;;;;;;;;;;;;;353587;28;910;-74
2022/12/21 00:25:12;;;;;;;;;;;;;;;;;;353463;28;1497;-74
2022/12/21 00:25:22;;;;;;;;;;;;;;;;;;353421;28;1277;-73
2022/12/21 00:25:32;;;;;;;;;;;;;;;;;;353931;27;1286;-73
2022/12/21 00:25:42;;;;;;;;;;;;;;;;;;354920;27;958;-73
2022/12/21 00:25:53;;;;;;;;;;;;;;;;;;353449;28;1300;-75
2022/12/21 00:26:03;;;;;;;;;;;;;;;;;;353068;28;1919;-75
2022/12/21 00:26:13;;;;;;;;;;;;;;;;;;353405;28;1213;-75
2022/12/21 00:26:23;;;;;;;;;;;;;;;;;;352106;28;1240;-75
2022/12/21 00:26:33;;;;;;;;;;;;;;;;;;350615;28;1312;-75
2022/12/21 00:26:44;;;;;;;;;;;;;;;;;;350676;28;1366;-74
2022/12/21 00:26:55;;;;;;;;;;;;;;;;;;350795;28;823;-74
2022/12/21 00:27:05;;;;;;;;;;;;;;;;;;350592;28;812;-74
2022/12/21 00:27:15;;;;;;;;;;;;;;;;;;350552;28;867;-74
2022/12/21 00:27:25;;;;;;;;;;;;;;;;;;350814;28;891;-74
2022/12/21 00:27:35;;;;;;;;;;;;;;;;;;350573;28;1027;-74
2022/12/21 00:27:45;;;;;;;;;;;;;;;;;;349020;28;1152;-74
2022/12/21 00:27:55;;;;;;;;;;;;;;;;;;346931;28;1225;-74
2022/12/21 00:28:06;;;;;;;;;;;;;;;;;;347997;28;1220;-74
2022/12/21 00:28:16;;;;;;;;;;;;;;;;;;347898;28;991;-74
2022/12/21 00:28:26;;;;;;;;;;;;;;;;;;348157;28;999;-74
2022/12/21 00:28:36;;;;;;;;;;;;;;;;;;350660;28;1310;-74
2022/12/21 00:28:47;;;;;;;;;;;;;;;;;;349282;28;1287;-74
2022/12/21 00:28:57;;;;;;;;;;;;;;;;;;349418;28;843;-74
2022/12/21 00:29:07;;;;;;;;;;;;;;;;;;349161;28;1295;-74
2022/12/21 00:29:17;;;;;;;;;;;;;;;;;;348978;28;939;-73
2022/12/21 00:29:28;;;;;;;;;;;;;;;;;;349425;28;932;-73
2022/12/21 00:29:38;;;;;;;;;;;;;;;;;;346746;28;1794;-74
2022/12/21 00:29:48;;;;;;;;;;;;;;;;;;346661;28;955;-74
2022/12/21 00:29:58;;;;;;;;;;;;;;;;;;348085;28;1441;-74
2022/12/21 00:30:08;;;;;;;;;;;;;;;;;;351792;28;1150;-74
2022/12/21 00:30:18;;;;;;;;;;;;;;;;;;350499;28;1416;-74
2022/12/21 00:30:28;;;;;;;;;;;;;;;;;;349291;28;1163;-74
2022/12/21 00:30:38;;;;;;;;;;;;;;;;;;350498;28;832;-74
2022/12/21 00:30:48;;;;;;;;;;;;;;;;;;350695;28;1325;-74
2022/12/21 00:30:58;;;;;;;;;;;;;;;;;;347262;28;4200;-74
2022/12/21 00:31:08;;;;;;;;;;;;;;;;;;347406;28;6348;-74
2022/12/21 00:31:19;;;;;;;;;;;;;;;;;;346861;28;1168;-74
2022/12/21 00:31:29;;;;;;;;;;;;;;;;;;347151;28;1685;-73
2022/12/21 00:31:39;;;;;;;;;;;;;;;;;;346999;28;6853;-73
2022/12/21 00:31:50;;;;;;;;;;;;;;;;;;346370;28;1334;-73
2022/12/21 00:32:00;;;;;;;;;;;;;;;;;;346304;28;1163;-75
2022/12/21 00:32:10;;;;;;;;;;;;;;;;;;345406;28;844;-75
2022/12/21 00:32:20;;;;;;;;;;;;;;;;;;344184;28;1531;-75
2022/12/21 00:32:30;;;;;;;;;;;;;;;;;;342122;28;1980;-74
2022/12/21 00:32:40;;;;;;;;;;;;;;;;;;340654;29;1544;-74
2022/12/21 00:32:50;;;;;;;;;;;;;;;;;;339175;29;1665;-74
2022/12/21 00:33:00;;;;;;;;;;;;;;;;;;339867;29;841;-74
2022/12/21 00:33:10;;;;;;;;;;;;;;;;;;339867;29;972;-74
2022/12/21 00:33:20;;;;;;;;;;;;;;;;;;339746;29;1119;-74
2022/12/21 00:33:31;;;;;;;;;;;;;;;;;;338651;28;1424;-74
2022/12/21 00:33:41;;;;;;;;;;;;;;;;;;341169;29;1178;-74
2022/12/21 00:33:51;;;;;;;;;;;;;;;;;;340873;29;1836;-74
2022/12/21 00:34:01;;;;;;;;;;;;;;;;;;340782;28;2496;-74
2022/12/21 00:34:11;;;;;;;;;;;;;;;;;;341291;29;1323;-74
2022/12/21 00:34:21;;;;;;;;;;;;;;;;;;338497;29;1836;-74
2022/12/21 00:34:31;;;;;;;;;;;;;;;;;;337017;29;2057;-75
2022/12/21 00:34:41;;;;;;;;;;;;;;;;;;337363;29;850;-75
2022/12/21 00:34:51;;;;;;;;;;;;;;;;;;337155;29;1567;-75
2022/12/21 00:35:01;;;;;;;;;;;;;;;;;;337408;29;902;-75
2022/12/21 00:35:11;;;;;;;;;;;;;;;;;;338541;29;1219;-75
2022/12/21 00:35:22;;;;;;;;;;;;;;;;;;336476;29;1270;-75
2022/12/21 00:35:32;;;;;;;;;;;;;;;;;;335590;29;1772;-75
2022/12/21 00:35:42;;;;;;;;;;;;;;;;;;335950;29;1291;-75
2022/12/21 00:35:52;;;;;;;;;;;;;;;;;;336413;29;1904;-75
2022/12/21 00:36:02;;;;;;;;;;;;;;;;;;333106;29;2316;-75
2022/12/21 00:36:12;;;;;;;;;;;;;;;;;;332165;29;1423;-75
2022/12/21 00:36:22;;;;;;;;;;;;;;;;;;331552;29;2435;-75
2022/12/21 00:36:32;;;;;;;;;;;;;;;;;;331786;29;2572;-75
2022/12/21 00:36:42;;;;;;;;;;;;;;;;;;333493;29;1445;-75
2022/12/21 00:36:53;;;;;;;;;;;;;;;;;;333969;29;2721;-75
2022/12/21 00:37:03;;;;;;;;;;;;;;;;;;335322;29;1908;-75
2022/12/21 00:37:13;;;;;;;;;;;;;;;;;;334739;29;1281;-75
2022/12/21 00:37:23;;;;;;;;;;;;;;;;;;335623;29;1403;-75
2022/12/21 00:37:33;;;;;;;;;;;;;;;;;;330852;29;1963;-75
2022/12/21 00:37:45;;;;;;;;;;;;;;;;;;327241;30;1172;-76
2022/12/21 00:37:55;;;;;;;;;;;;;;;;;;327283;30;828;-75
2022/12/21 00:38:05;;;;;;;;;;;;;;;;;;326556;30;2744;-75
2022/12/21 00:38:15;;;;;;;;;;;;;;;;;;325474;30;3242;-75
2022/12/21 00:38:25;;;;;;;;;;;;;;;;;;327257;30;986;-75
2022/12/21 00:38:36;;;;;;;;;;;;;;;;;;324130;30;3452;-75
2022/12/21 00:38:49;;;;;;;;;;;;;;;;;;321830;30;3561;-75
2022/12/21 00:38:59;;;;;;;;;;;;;;;;;;320062;30;1210;-75
2022/12/21 00:39:09;;;;;;;;;;;;;;;;;;321792;30;3087;-75
2022/12/21 00:39:19;;;;;;;;;;;;;;;;;;322497;30;2361;-75
2022/12/21 00:39:29;;;;;;;;;;;;;;;;;;321269;30;1264;-75
2022/12/21 00:39:39;;;;;;;;;;;;;;;;;;319714;30;2368;-75
2022/12/21 00:39:49;;;;;;;;;;;;;;;;;;320074;30;2836;-75
2022/12/21 00:40:00;;;;;;;;;;;;;;;;;;321066;30;1860;-75
2022/12/21 00:40:10;;;;;;;;;;;;;;;;;;315782;31;6352;-76
2022/12/21 00:40:20;;;;;;;;;;;;;;;;;;316495;31;6414;-75
2022/12/21 00:40:30;;;;;;;;;;;;;;;;;;317954;31;4671;-75
2022/12/21 00:40:40;;;;;;;;;;;;;;;;;;316782;31;2897;-76
2022/12/21 00:40:50;;;;;;;;;;;;;;;;;;312648;31;4628;-75
2022/12/21 00:41:02;;;;;;;;;;;;;;;;;;311904;31;4482;-75
2022/12/21 00:41:12;;;;;;;;;;;;;;;;;;314623;31;956;-75
2022/12/21 00:41:22;;;;;;;;;;;;;;;;;;312449;31;4359;-75
2022/12/21 00:41:32;;;;;;;;;;;;;;;;;;311911;31;3315;-75
2022/12/21 00:41:42;;;;;;;;;;;;;;;;;;311107;31;1119;-75
2022/12/21 00:41:52;;;;;;;;;;;;;;;;;;311383;31;3418;-75
2022/12/21 00:42:02;;;;;;;;;;;;;;;;;;310643;31;4374;-75
2022/12/21 00:42:14;;;;;;;;;;;;;;;;;;312243;31;970;-76
2022/12/21 00:42:24;;;;;;;;;;;;;;;;;;309745;31;5314;-76
2022/12/21 00:42:34;;;;;;;;;;;;;;;;;;307262;31;5596;-76
2022/12/21 00:42:44;;;;;;;;;;;;;;;;;;307830;32;883;-76
2022/12/21 00:42:55;;;;;;;;;;;;;;;;;;306764;32;6493;-76
2022/12/21 00:43:05;;;;;;;;;;;;;;;;;;307852;31;6303;-76
2022/12/21 00:43:15;;;;;;;;;;;;;;;;;;309278;31;6401;-76
2022/12/21 00:43:25;;;;;;;;;;;;;;;;;;308978;32;1089;-75
2022/12/21 00:43:35;;;;;;;;;;;;;;;;;;305722;32;6259;-75
2022/12/21 00:43:45;;;;;;;;;;;;;;;;;;305792;32;4757;-75
2022/12/21 00:43:55;;;;;;;;;;;;;;;;;;304569;32;1279;-75
2022/12/21 00:44:05;;;;;;;;;;;;;;;;;;302385;32;4979;-75
2022/12/21 00:44:15;;;;;;;;;;;;;;;;;;300308;32;6291;-75
2022/12/21 00:44:25;;;;;;;;;;;;;;;;;;299333;33;1203;-75
2022/12/21 00:44:36;;;;;;;;;;;;;;;;;;296973;33;7771;-75
2022/12/21 00:44:46;;;;;;;;;;;;;;;;;;296169;33;8144;-75
2022/12/21 00:44:56;;;;;;;;;;;;;;;;;;298452;33;988;-75
2022/12/21 00:45:06;;;;;;;;;;;;;;;;;;296042;33;8811;-75
2022/12/21 00:45:16;;;;;;;;;;;;;;;;;;295991;33;10466;-75
2022/12/21 00:45:26;;;;;;;;;;;;;;;;;;296335;33;1196;-75
2022/12/21 00:45:36;;;;;;;;;;;;;;;;;;292652;33;8562;-75
2022/12/21 00:45:46;;;;;;;;;;;;;;;;;;289974;33;8711;-75
2022/12/21 00:45:57;;;;;;;;;;;;;;;;;;290645;34;923;-75
2022/12/21 00:46:10;;;;;;;;;;;;;;;;;;288451;34;6680;-75
2022/12/21 00:46:20;;;;;;;;;;;;;;;;;;289441;34;6421;-75
2022/12/21 00:46:30;;;;;;;;;;;;;;;;;;288948;34;8987;-75
2022/12/21 00:46:40;;;;;;;;;;;;;;;;;;289637;34;866;-75
2022/12/21 00:48:37;;;;;;;;;;;;;;;;;;2502995;27;19937;-75
2022/12/21 00:48:47;;;;;;;;;;;;;;;;;;356439;27;942;-75
2022/12/21 00:48:58;;;;;;;;;;;;;;;;;;354807;27;1611;-75
2022/12/21 00:49:08;;;;;;;;;;;;;;;;;;354926;27;1403;-75
2022/12/21 00:49:18;;;;;;;;;;;;;;;;;;352837;27;5685;-75
2022/12/21 00:49:28;;;;;;;;;;;;;;;;;;353518;27;3624;-75
2022/12/21 00:49:38;;;;;;;;;;;;;;;;;;354754;27;4075;-75
2022/12/21 00:49:48;;;;;;;;;;;;;;;;;;353330;28;1712;-75
2022/12/21 00:49:58;;;;;;;;;;;;;;;;;;352075;28;1218;-75
2022/12/21 00:50:08;;;;;;;;;;;;;;;;;;352056;28;1470;-75
2022/12/21 00:50:19;;;;;;;;;;;;;;;;;;352047;28;1197;-75
2022/12/21 00:50:29;;;;;;;;;;;;;;;;;;351068;28;1359;-75
2022/12/21 00:50:39;;;;;;;;;;;;;;;;;;353558;28;1521;-75
2022/12/21 00:50:49;;;;;;;;;;;;;;;;;;353486;28;950;-75
2022/12/21 00:50:59;;;;;;;;;;;;;;;;;;351760;28;2484;-76
2022/12/21 00:51:09;;;;;;;;;;;;;;;;;;349791;28;1584;-76
2022/12/21 00:51:19;;;;;;;;;;;;;;;;;;350596;28;931;-75
2022/12/21 00:51:29;;;;;;;;;;;;;;;;;;350847;28;1010;-75
2022/12/21 00:51:39;;;;;;;;;;;;;;;;;;350129;28;1167;-75
2022/12/21 00:51:49;;;;;;;;;;;;;;;;;;350574;28;915;-75
2022/12/21 00:52:00;;;;;;;;;;;;;;;;;;350642;28;1253;-75
2022/12/21 00:52:10;;;;;;;;;;;;;;;;;;350732;28;1491;-75
2022/12/21 00:52:20;;;;;;;;;;;;;;;;;;351780;28;1248;-75
2022/12/21 00:52:30;;;;;;;;;;;;;;;;;;350420;28;1201;-75
2022/12/21 00:52:40;;;;;;;;;;;;;;;;;;350196;28;1719;-75
2022/12/21 00:52:50;;;;;;;;;;;;;;;;;;349187;28;978;-76
2022/12/21 00:53:00;;;;;;;;;;;;;;;;;;348696;28;1152;-76
2022/12/21 00:53:10;;;;;;;;;;;;;;;;;;348717;28;1040;-76
2022/12/21 00:53:20;;;;;;;;;;;;;;;;;;346361;28;1223;-76
2022/12/21 00:53:30;;;;;;;;;;;;;;;;;;346620;28;805;-76
2022/12/21 00:53:41;;;;;;;;;;;;;;;;;;346517;28;1449;-76
2022/12/21 00:53:51;;;;;;;;;;;;;;;;;;346469;28;1294;-76
2022/12/21 00:54:01;;;;;;;;;;;;;;;;;;346562;28;1015;-76
2022/12/21 00:54:11;;;;;;;;;;;;;;;;;;346683;28;835;-76
2022/12/21 00:54:21;;;;;;;;;;;;;;;;;;347786;28;935;-76
2022/12/21 00:54:31;;;;;;;;;;;;;;;;;;347737;28;1281;-76
2022/12/21 00:54:41;;;;;;;;;;;;;;;;;;347834;28;970;-76
2022/12/21 00:54:51;;;;;;;;;;;;;;;;;;346531;28;1263;-76
2022/12/21 00:55:01;;;;;;;;;;;;;;;;;;347076;28;1284;-76
2022/12/21 00:55:11;;;;;;;;;;;;;;;;;;347928;28;1212;-76
2022/12/21 00:55:21;;;;;;;;;;;;;;;;;;347854;28;918;-76
2022/12/21 00:55:32;;;;;;;;;;;;;;;;;;347235;28;1266;-76
2022/12/21 00:55:42;;;;;;;;;;;;;;;;;;349269;28;1273;-76
2022/12/21 00:55:52;;;;;;;;;;;;;;;;;;347969;28;1269;-76
2022/12/21 00:56:02;;;;;;;;;;;;;;;;;;349301;28;1423;-75
2022/12/21 00:56:12;;;;;;;;;;;;;;;;;;348672;28;1274;-75
2022/12/21 00:56:22;;;;;;;;;;;;;;;;;;347816;28;1223;-75
2022/12/21 00:56:32;;;;;;;;;;;;;;;;;;346926;28;1194;-75
2022/12/21 00:56:42;;;;;;;;;;;;;;;;;;346587;28;1467;-75
2022/12/21 00:56:53;;;;;;;;;;;;;;;;;;348049;28;1005;-75
2022/12/21 00:57:03;;;;;;;;;;;;;;;;;;347586;28;1498;-75
2022/12/21 00:57:13;;;;;;;;;;;;;;;;;;346551;28;1546;-75
2022/12/21 00:57:23;;;;;;;;;;;;;;;;;;347930;28;1300;-75
2022/12/21 00:57:33;;;;;;;;;;;;;;;;;;348667;28;1910;-75
2022/12/21 00:57:44;;;;;;;;;;;;;;;;;;347729;28;869;-75
2022/12/21 00:57:54;;;;;;;;;;;;;;;;;;347905;28;1305;-75
2022/12/21 00:58:04;;;;;;;;;;;;;;;;;;348138;28;863;-75
2022/12/21 00:58:16;;;;;;;;;;;;;;;;;;348537;28;1259;-76
2022/12/21 00:58:26;;;;;;;;;;;;;;;;;;346522;28;1237;-76
2022/12/21 00:58:36;;;;;;;;;;;;;;;;;;345164;28;2841;-75
2022/12/21 00:58:47;;;;;;;;;;;;;;;;;;342677;28;6370;-77
2022/12/21 00:58:57;;;;;;;;;;;;;;;;;;341806;28;1920;-75
2022/12/21 00:59:07;;;;;;;;;;;;;;;;;;343465;28;1669;-75
2022/12/21 00:59:17;;;;;;;;;;;;;;;;;;343147;28;4301;-75
2022/12/21 00:59:27;;;;;;;;;;;;;;;;;;343688;28;1913;-75
2022/12/21 00:59:38;;;;;;;;;;;;;;;;;;345285;28;857;-75
2022/12/21 00:59:48;;;;;;;;;;;;;;;;;;344600;28;1527;-76
2022/12/21 00:59:58;;;;;;;;;;;;;;;;;;345110;28;1369;-76
2022/12/21 01:00:09;;;;;;;;;;;;;;;;;;345190;28;856;-76
2022/12/21 01:00:19;;;;;;;;;;;;;;;;;;343633;28;1610;-75
2022/12/21 01:00:29;;;;;;;;;;;;;;;;;;339171;29;1867;-75
2022/12/21 01:00:39;;;;;;;;;;;;;;;;;;338609;29;969;-75
2022/12/21 01:00:49;;;;;;;;;;;;;;;;;;340315;29;1941;-75
2022/12/21 01:00:59;;;;;;;;;;;;;;;;;;339948;29;2372;-75
2022/12/21 01:01:10;;;;;;;;;;;;;;;;;;338005;29;1278;-75
2022/12/21 01:01:20;;;;;;;;;;;;;;;;;;339053;28;2361;-75
2022/12/21 01:01:30;;;;;;;;;;;;;;;;;;338005;29;2500;-75
2022/12/21 01:01:40;;;;;;;;;;;;;;;;;;337240;29;1328;-75
2022/12/21 01:01:50;;;;;;;;;;;;;;;;;;335832;29;2596;-75
2022/12/21 01:02:00;;;;;;;;;;;;;;;;;;336019;29;2104;-75
2022/12/21 01:02:10;;;;;;;;;;;;;;;;;;336143;29;855;-76
2022/12/21 01:02:20;;;;;;;;;;;;;;;;;;337924;29;1656;-76
2022/12/21 01:02:30;;;;;;;;;;;;;;;;;;337658;29;2010;-76
2022/12/21 01:02:40;;;;;;;;;;;;;;;;;;337286;29;1060;-76
2022/12/21 01:02:51;;;;;;;;;;;;;;;;;;335303;29;2761;-76
2022/12/21 01:03:02;;;;;;;;;;;;;;;;;;335434;29;2674;-75
2022/12/21 01:03:12;;;;;;;;;;;;;;;;;;335091;29;3247;-75
2022/12/21 01:03:22;;;;;;;;;;;;;;;;;;333407;29;1017;-75
2022/12/21 01:03:32;;;;;;;;;;;;;;;;;;330437;29;3173;-76
2022/12/21 01:03:42;;;;;;;;;;;;;;;;;;330369;29;3529;-75
2022/12/21 01:03:52;;;;;;;;;;;;;;;;;;330942;29;1234;-78
2022/12/21 01:04:02;;;;;;;;;;;;;;;;;;329831;29;3289;-77
2022/12/21 01:04:12;;;;;;;;;;;;;;;;;;328169;30;2296;-76
2022/12/21 01:04:23;;;;;;;;;;;;;;;;;;329681;30;883;-76
2022/12/21 01:04:33;;;;;;;;;;;;;;;;;;329344;30;2166;-77
2022/12/21 01:04:43;;;;;;;;;;;;;;;;;;329314;29;3054;-77
2022/12/21 01:04:53;;;;;;;;;;;;;;;;;;328465;30;1316;-78
2022/12/21 01:05:04;;;;;;;;;;;;;;;;;;325855;30;3607;-75
2022/12/21 01:05:14;;;;;;;;;;;;;;;;;;323979;30;4135;-75
2022/12/21 01:05:24;;;;;;;;;;;;;;;;;;326000;30;1331;-75
2022/12/21 01:05:34;;;;;;;;;;;;;;;;;;323954;30;4275;-75
2022/12/21 01:05:44;;;;;;;;;;;;;;;;;;324216;30;4377;-75
2022/12/21 01:05:54;;;;;;;;;;;;;;;;;;323556;30;1303;-75
2022/12/21 01:06:04;;;;;;;;;;;;;;;;;;322754;30;4453;-75
2022/12/21 01:06:14;;;;;;;;;;;;;;;;;;321410;30;4533;-75
2022/12/21 01:06:24;;;;;;;;;;;;;;;;;;321337;30;932;-75
2022/12/21 01:06:35;;;;;;;;;;;;;;;;;;319085;30;3287;-74
2022/12/21 01:06:45;;;;;;;;;;;;;;;;;;319962;30;2596;-74
2022/12/21 01:06:55;;;;;;;;;;;;;;;;;;321112;30;1208;-75
2022/12/21 01:07:05;;;;;;;;;;;;;;;;;;318430;30;3992;-75
2022/12/21 01:07:15;;;;;;;;;;;;;;;;;;318572;30;4996;-75
2022/12/21 01:07:25;;;;;;;;;;;;;;;;;;321190;30;1301;-75
2022/12/21 01:07:35;;;;;;;;;;;;;;;;;;319142;30;5691;-75
2022/12/21 01:07:45;;;;;;;;;;;;;;;;;;319246;30;5409;-75
2022/12/21 01:07:55;;;;;;;;;;;;;;;;;;318516;30;6132;-75
2022/12/21 01:08:06;;;;;;;;;;;;;;;;;;319642;30;6902;-75
2022/12/21 01:08:16;;;;;;;;;;;;;;;;;;318536;30;5720;-75
2022/12/21 01:08:26;;;;;;;;;;;;;;;;;;319272;30;3511;-74
2022/12/21 01:08:36;;;;;;;;;;;;;;;;;;316289;31;6295;-74
2022/12/21 01:08:46;;;;;;;;;;;;;;;;;;316261;31;4782;-74
2022/12/21 01:08:56;;;;;;;;;;;;;;;;;;316675;31;1383;-75
2022/12/21 01:09:06;;;;;;;;;;;;;;;;;;316858;31;4355;-75
2022/12/21 01:09:16;;;;;;;;;;;;;;;;;;313697;31;5457;-75
2022/12/21 01:09:26;;;;;;;;;;;;;;;;;;310972;31;6928;-75
2022/12/21 01:09:36;;;;;;;;;;;;;;;;;;309262;31;1438;-74
2022/12/21 01:09:46;;;;;;;;;;;;;;;;;;310380;31;7907;-74
2022/12/21 01:09:57;;;;;;;;;;;;;;;;;;312935;31;7591;-74
2022/12/21 01:10:07;;;;;;;;;;;;;;;;;;309006;31;1532;-74
2022/12/21 01:10:17;;;;;;;;;;;;;;;;;;306329;31;8036;-74
2022/12/21 01:10:27;;;;;;;;;;;;;;;;;;305412;32;8042;-74
2022/12/21 01:10:37;;;;;;;;;;;;;;;;;;306766;32;888;-74
2022/12/21 01:10:47;;;;;;;;;;;;;;;;;;305019;32;8762;-74
2022/12/21 01:10:57;;;;;;;;;;;;;;;;;;303069;32;6635;-74
2022/12/21 01:11:07;;;;;;;;;;;;;;;;;;303337;32;1225;-74
2022/12/21 01:11:18;;;;;;;;;;;;;;;;;;299250;32;6724;-74
2022/12/21 01:11:28;;;;;;;;;;;;;;;;;;297533;33;7869;-74
2022/12/21 01:11:38;;;;;;;;;;;;;;;;;;294457;33;1418;-74
2022/12/21 01:14:01;;;;;;;;;;;;;;;;;;2505693;27;20884;-76
2022/12/21 01:14:11;;;;;;;;;;;;;;;;;;356277;27;1335;-76
2022/12/21 01:14:21;;;;;;;;;;;;;;;;;;356295;27;1051;-76
2022/12/21 01:14:31;;;;;;;;;;;;;;;;;;354114;27;1472;-76
2022/12/21 01:14:42;;;;;;;;;;;;;;;;;;353566;28;1009;-76
2022/12/21 01:14:52;;;;;;;;;;;;;;;;;;353069;28;1336;-76
2022/12/21 01:15:02;;;;;;;;;;;;;;;;;;353588;28;969;-76
2022/12/21 01:15:12;;;;;;;;;;;;;;;;;;353570;28;759;-76
2022/12/21 01:15:22;;;;;;;;;;;;;;;;;;352033;28;1217;-75
2022/12/21 01:15:32;;;;;;;;;;;;;;;;;;352104;28;1230;-75
2022/12/21 01:15:42;;;;;;;;;;;;;;;;;;351994;28;1425;-74
2022/12/21 01:15:53;;;;;;;;;;;;;;;;;;352374;28;1190;-74
2022/12/21 01:16:03;;;;;;;;;;;;;;;;;;352730;28;1841;-74
2022/12/21 01:16:13;;;;;;;;;;;;;;;;;;352056;28;1294;-74
2022/12/21 01:16:23;;;;;;;;;;;;;;;;;;351910;28;1361;-74
2022/12/21 01:16:33;;;;;;;;;;;;;;;;;;352748;28;1642;-74
2022/12/21 01:16:44;;;;;;;;;;;;;;;;;;352196;28;915;-74
2022/12/21 01:16:54;;;;;;;;;;;;;;;;;;351817;28;3990;-74
2022/12/21 01:17:04;;;;;;;;;;;;;;;;;;348433;28;7523;-74
2022/12/21 01:17:14;;;;;;;;;;;;;;;;;;351575;28;1608;-74
2022/12/21 01:17:24;;;;;;;;;;;;;;;;;;351871;28;2395;-73
2022/12/21 01:17:35;;;;;;;;;;;;;;;;;;350541;28;1593;-74